»·PEaware :: N724SP KLGB-KTOA

N724SP :: KLGB-KTOA

FLIGHT INFORMATION

Flight Status: Arrived
Operator: Privately registered:
United States
More flights under this callsign
Pilot: Paul W. (17139)
Aircraft: CESSNA 172 SKYHAWK
(C172)
More flights by this aircraft type
Origin: KLGB Long Beach
United States
Destination: KTOA Zamperini
United States
More flights between these airports :: More routes between these airports
Route: +KLGB SLI KTOA
File this flight plan on PilotEdge
Remarks:
Altitude:
(Current/Filed)
3,000ft
Speed:
(Current/Filed)
116kts
Departed: 29-Dec-17 01:19 PM
Arrived: 29-Dec-17 01:33 PM
Distance/Time
Traveled:
9nm/0:14
Distance/Time
To Go:
Arrived

Flight Plot

Page will automatically refresh every two minutes.


Map Options




Map Legend


Flown Route
Filed Route
Departure Airport
Arrival Airport
Navaid (VOR, NDB)
Fix

Horizontal Profiles

Position Reports

Time Latitude Longitude Heading Altitude Ground
Speed
29-Dec-17 12:52 33.812589 -118.160936 353 63ft 0kts
29-Dec-17 12:53 33.812589 -118.160936 353 63ft 0kts
29-Dec-17 12:54 33.812589 -118.160936 353 63ft 0kts
29-Dec-17 12:55 33.812589 -118.160936 353 63ft 0kts
29-Dec-17 12:56 33.812590 -118.160936 353 63ft 0kts
29-Dec-17 12:57 33.812591 -118.160936 353 63ft 0kts
29-Dec-17 12:58 33.812593 -118.160937 353 63ft 0kts
29-Dec-17 12:59 33.812594 -118.160937 353 63ft 0kts
29-Dec-17 13:00 33.812596 -118.160937 353 63ft 0kts
29-Dec-17 13:01 33.812597 -118.160937 353 63ft 0kts
29-Dec-17 13:02 33.812598 -118.160937 353 63ft 0kts
29-Dec-17 13:03 33.812600 -118.160938 353 63ft 0kts
29-Dec-17 13:04 33.812601 -118.160938 353 63ft 0kts
29-Dec-17 13:05 33.812603 -118.160938 353 63ft 0kts
29-Dec-17 13:06 33.812604 -118.160938 353 63ft 0kts
29-Dec-17 13:07 33.812606 -118.160938 353 63ft 0kts
29-Dec-17 13:08 33.813018 -118.155825 89 63ft 31kts
29-Dec-17 13:09 33.813026 -118.149973 86 63ft 5kts
29-Dec-17 13:10 33.813050 -118.149186 95 63ft 0kts
29-Dec-17 13:11 33.813050 -118.149186 95 63ft 0kts
29-Dec-17 13:12 33.813050 -118.149186 95 63ft 0kts
29-Dec-17 13:13 33.813050 -118.149186 95 63ft 0kts
29-Dec-17 13:14 33.813050 -118.149186 95 63ft 0kts
29-Dec-17 13:15 33.813050 -118.149186 95 63ft 0kts
29-Dec-17 13:16 33.813050 -118.149186 95 63ft 0kts
29-Dec-17 13:17 33.813050 -118.149186 95 63ft 0kts
29-Dec-17 13:18 33.813050 -118.149186 95 63ft 0kts
29-Dec-17 13:19 33.813050 -118.149186 95 63ft 0kts
29-Dec-17 13:20 33.813050 -118.149186 95 63ft 0kts
29-Dec-17 13:21 33.813050 -118.149186 95 63ft 0kts
29-Dec-17 13:22 33.813050 -118.149186 95 63ft 0kts
29-Dec-17 13:23 33.813338 -118.148037 10 63ft 0kts
29-Dec-17 13:24 33.814031 -118.148332 294 63ft 14kts
29-Dec-17 13:25 33.812526 -118.166623 267 516ft 79kts
29-Dec-17 13:26 33.802003 -118.184682 202 1388ft 77kts
29-Dec-17 13:27 33.783102 -118.195856 183 2174ft 78kts
29-Dec-17 13:28 33.761877 -118.186167 155 2099ft 77kts
29-Dec-17 13:29 33.740625 -118.172362 156 2157ft 91kts
29-Dec-17 13:30 33.717171 -118.156616 144 2124ft 94kts
29-Dec-17 13:31 33.693987 -118.140209 189 1969ft 105kts
29-Dec-17 13:32 33.692206 -118.169002 285 1907ft 98kts
29-Dec-17 13:33 33.707462 -118.195583 312 1957ft 91kts
29-Dec-17 13:34 33.724477 -118.220064 308 1976ft 92kts
29-Dec-17 13:35 33.740406 -118.245238 306 1958ft 94kts
29-Dec-17 13:36 33.757503 -118.269655 308 1785ft 97kts
29-Dec-17 13:37 33.774033 -118.294452 309 1119ft 95kts
29-Dec-17 13:38 33.790699 -118.319036 308 499ft 94kts
29-Dec-17 13:39 33.803231 -118.338355 308 106ft 31kts
29-Dec-17 13:40 33.805746 -118.343284 293 106ft 0kts
29-Dec-17 13:41 33.805302 -118.345938 220 106ft 21kts
29-Dec-17 13:42 33.799878 -118.339022 130 106ft 21kts
29-Dec-17 13:43 33.798286 -118.337338 48 106ft 0kts
29-Dec-17 13:44 33.798286 -118.337337 48 106ft 0kts
29-Dec-17 13:45 33.798286 -118.337337 48 106ft 0kts
29-Dec-17 13:46 33.798286 -118.337337 48 106ft 0kts
29-Dec-17 13:47 33.798286 -118.337337 48 106ft 0kts
29-Dec-17 13:48 33.798286 -118.337337 48 106ft 0kts
29-Dec-17 13:49 33.798286 -118.337337 48 106ft 0kts
29-Dec-17 13:50 33.798286 -118.337337 48 106ft 0kts
29-Dec-17 13:51 33.798286 -118.337337 48 106ft 0kts
29-Dec-17 13:52 33.798286 -118.337337 48 106ft 0kts
29-Dec-17 13:53 33.798286 -118.337337 48 106ft 0kts

Navigation Log

Ident Type
Flight plan parsing failed, navigation log unavailable